Terminal Aerodrome Forecast
Issued by NWS

Home | Current Version | Previous Version | Text Only | Print | Product List | Glossary On
Versions: 1 2 3 4 5 6 7 8 9 10 11 12 13 14 15 16 17 18 19 20
000
FTUS43 KIND 231133
TAFBMG
TAF
KBMG 231133Z 2312/2412 12004KT P6SM SCT250
     FM240500 VRB03KT P6SM VCSH OVC080
     FM240600 VRB03KT P6SM OVC060
     FM241000 VRB03KT P6SM OVC030
      AMD LTD TO CLD VIS AND WIND TIL 231300=

USA.gov is the U.S. government's official web portal to all federal, state and local government web resources and services.